Time;durP1;ratioP1;P1;durP2;ratioP2;P2;SDS_P1;SDS_P2;PMS_P1;PMS_P2;Temp;Humidity;BMP_temperature;BMP_pressure;BME280_temperature;BME280_humidity;BME280_pressure;Samples;Min_cycle;Max_cycle;Signal;HPM_P1;HPM_P2
2023/01/03 00:01:49;;;;;;;;;;;6.50;99.90;;;;;;5032045;28;20466;-76
2023/01/03 00:04:15;;;;;;;;;;;6.50;99.90;;;;;;5028949;28;19912;-77
2023/01/03 00:06:45;;;;;;;;;;;6.30;99.90;;;;;;5028321;28;19952;-77
2023/01/03 00:09:12;;;;;;;;;;;6.30;99.90;;;;;;5029355;28;19917;-78
2023/01/03 00:14:24;;;;;;;;;;;6.10;99.90;;;;;;5030153;28;20408;-77
2023/01/03 00:16:53;;;;;;;;;;;6.10;99.90;;;;;;5029401;28;19905;-77
2023/01/03 00:19:19;;;;;;;;;;;6.00;99.90;;;;;;5028487;28;19964;-77
2023/01/03 00:21:45;;;;;;;;;;;6.00;99.90;;;;;;5028697;28;19909;-76
2023/01/03 00:24:10;;;;;;;;;;;6.00;99.90;;;;;;5029472;28;20361;-77
2023/01/03 00:26:36;;;;;;;;;;;5.90;99.90;;;;;;5028244;28;20198;-77
2023/01/03 00:29:02;;;;;;;;;;;5.80;99.90;;;;;;5028109;28;19924;-76
2023/01/03 00:31:28;;;;;;;;;;;5.80;99.90;;;;;;5029544;28;19909;-77
2023/01/03 00:33:53;;;;;;;;;;;5.70;99.90;;;;;;5027904;28;19908;-77
2023/01/03 00:36:19;;;;;;;;;;;5.70;99.90;;;;;;5029535;28;19913;-77
2023/01/03 00:38:44;;;;;;;;;;;5.60;99.90;;;;;;5028331;28;19912;-77
2023/01/03 00:41:14;;;;;;;;;;;5.50;99.90;;;;;;5028186;28;20293;-76
2023/01/03 00:43:41;;;;;;;;;;;5.50;99.90;;;;;;5027913;28;19924;-77
2023/01/03 00:46:07;;;;;;;;;;;5.40;99.90;;;;;;5027837;28;20293;-77
2023/01/03 00:48:33;;;;;;;;;;;5.40;99.90;;;;;;5028042;28;19917;-77
2023/01/03 00:51:05;;;;;;;;;;;5.40;99.90;;;;;;5027928;28;19913;-77
2023/01/03 00:53:30;;;;;;;;;;;5.40;99.90;;;;;;5028716;28;19913;-78
2023/01/03 00:56:00;;;;;;;;;;;5.40;99.90;;;;;;5032105;28;20281;-77
2023/01/03 00:58:28;;;;;;;;;;;5.50;99.90;;;;;;5032399;28;19960;-77
2023/01/03 01:00:54;;;;;;;;;;;5.60;99.90;;;;;;5033294;28;19956;-77
2023/01/03 01:03:19;;;;;;;;;;;5.70;99.90;;;;;;5032001;28;20377;-76
2023/01/03 01:05:45;;;;;;;;;;;5.80;99.90;;;;;;5033520;28;20281;-76
2023/01/03 01:08:10;;;;;;;;;;;5.90;99.90;;;;;;5032100;28;19909;-77
2023/01/03 01:10:40;;;;;;;;;;;6.00;99.90;;;;;;5032484;28;19905;-77
2023/01/03 01:13:06;;;;;;;;;;;6.00;99.90;;;;;;5032406;28;19915;-77
2023/01/03 01:15:32;;;;;;;;;;;6.00;99.90;;;;;;5031699;28;20370;-77
2023/01/03 01:17:58;;;;;;;;;;;6.10;99.90;;;;;;5033637;28;19967;-77
2023/01/03 01:20:23;;;;;;;;;;;6.20;99.90;;;;;;5032281;28;20378;-77
2023/01/03 01:22:49;;;;;;;;;;;6.10;99.90;;;;;;5032235;28;20397;-77
2023/01/03 01:25:14;;;;;;;;;;;6.10;99.90;;;;;;5033629;28;19909;-77
2023/01/03 01:27:40;;;;;;;;;;;6.10;99.90;;;;;;5032449;28;19921;-77
2023/01/03 01:30:05;;;;;;;;;;;6.10;99.90;;;;;;5032054;28;19917;-77
2023/01/03 01:32:31;;;;;;;;;;;6.10;99.90;;;;;;5032365;28;19908;-77
2023/01/03 01:34:56;;;;;;;;;;;6.10;99.90;;;;;;5032294;28;20305;-77
2023/01/03 01:37:22;;;;;;;;;;;6.00;99.90;;;;;;5032495;28;20420;-76
2023/01/03 01:39:47;;;;;;;;;;;6.00;99.90;;;;;;5033928;28;19909;-76
2023/01/03 01:45:02;;;;;;;;;;;6.00;99.90;;;;;;5033806;28;19932;-77
2023/01/03 01:47:33;;;;;;;;;;;5.90;99.90;;;;;;5033667;28;19909;-77
2023/01/03 01:50:11;;;;;;;;;;;6.00;99.90;;;;;;5031892;28;19917;-77
2023/01/03 01:52:38;;;;;;;;;;;6.00;99.90;;;;;;5032449;28;19909;-77
2023/01/03 01:55:05;;;;;;;;;;;6.00;99.90;;;;;;5031752;28;19917;-76
2023/01/03 01:57:31;;;;;;;;;;;5.90;99.90;;;;;;5033383;28;19905;-76
2023/01/03 01:59:57;;;;;;;;;;;5.90;99.90;;;;;;5033486;28;19939;-77
2023/01/03 02:02:23;;;;;;;;;;;5.90;99.90;;;;;;5032758;28;19909;-77
2023/01/03 02:04:50;;;;;;;;;;;5.80;99.90;;;;;;5032139;28;19963;-76
2023/01/03 02:07:17;;;;;;;;;;;5.80;99.90;;;;;;5031816;28;19909;-77
2023/01/03 02:09:42;;;;;;;;;;;5.80;99.90;;;;;;5032098;28;19924;-76
2023/01/03 02:15:13;;;;;;;;;;;5.70;99.90;;;;;;5034862;28;19927;-76
2023/01/03 02:17:48;;;;;;;;;;;5.80;99.90;;;;;;5032622;28;20359;-77
2023/01/03 02:20:29;;;;;;;;;;;5.80;99.90;;;;;;5034614;28;19909;-77
2023/01/03 02:23:01;;;;;;;;;;;5.80;99.90;;;;;;5033989;28;19936;-76
2023/01/03 02:25:33;;;;;;;;;;;5.80;99.90;;;;;;5031316;28;19908;-75
2023/01/03 02:28:24;;;;;;;;;;;5.80;99.90;;;;;;5031485;28;19917;-76
2023/01/03 02:30:50;;;;;;;;;;;5.80;99.90;;;;;;5029757;28;19909;-77
2023/01/03 02:33:15;;;;;;;;;;;5.80;99.90;;;;;;5030882;28;20300;-76
2023/01/03 02:35:52;;;;;;;;;;;5.90;99.90;;;;;;5029648;28;19905;-76
2023/01/03 02:38:36;;;;;;;;;;;5.80;99.90;;;;;;5029461;28;19905;-76
2023/01/03 02:41:01;;;;;;;;;;;5.80;99.90;;;;;;5029278;28;19931;-75
2023/01/03 02:43:36;;;;;;;;;;;5.80;99.90;;;;;;5029513;28;19909;-76
2023/01/03 02:46:12;;;;;;;;;;;5.80;99.90;;;;;;5030561;28;19909;-76
2023/01/03 02:48:44;;;;;;;;;;;5.80;99.90;;;;;;5029105;28;19924;-74
2023/01/03 02:51:22;;;;;;;;;;;5.80;99.90;;;;;;5029487;28;20386;-76
2023/01/03 02:53:48;;;;;;;;;;;5.80;99.90;;;;;;5029398;28;19909;-76
2023/01/03 02:56:18;;;;;;;;;;;5.80;99.90;;;;;;5029798;28;19936;-77
2023/01/03 02:58:45;;;;;;;;;;;5.80;99.90;;;;;;5032041;28;20005;-77
2023/01/03 03:01:11;;;;;;;;;;;5.70;99.90;;;;;;5030521;28;19909;-77
2023/01/03 03:03:38;;;;;;;;;;;5.70;99.90;;;;;;5030883;28;19909;-77
2023/01/03 03:06:22;;;;;;;;;;;5.60;99.90;;;;;;5030872;28;19920;-77
2023/01/03 03:08:47;;;;;;;;;;;5.70;99.90;;;;;;5030922;28;20437;-77
2023/01/03 03:14:05;;;;;;;;;;;5.60;99.90;;;;;;5030781;28;19962;-76
2023/01/03 03:16:48;;;;;;;;;;;5.60;99.90;;;;;;5030229;28;19936;-76
2023/01/03 03:25:04;;;;;;;;;;;5.70;99.90;;;;;;5030728;28;19915;-77
2023/01/03 03:30:17;;;;;;;;;;;5.60;99.90;;;;;;5030615;28;19984;-76
2023/01/03 03:32:44;;;;;;;;;;;5.70;99.90;;;;;;5029374;28;19909;-77
2023/01/03 03:35:13;;;;;;;;;;;5.60;99.90;;;;;;5030813;28;19909;-76
2023/01/03 03:37:39;;;;;;;;;;;5.60;99.90;;;;;;5029447;28;20003;-76
2023/01/03 03:45:58;;;;;;;;;;;5.60;99.90;;;;;;5030825;28;19916;-77
2023/01/03 03:48:29;;;;;;;;;;;5.60;99.90;;;;;;5030042;28;19962;-77
2023/01/03 03:51:03;;;;;;;;;;;5.60;99.90;;;;;;5029919;28;19979;-77
2023/01/03 03:53:31;;;;;;;;;;;5.60;99.90;;;;;;5029616;28;19905;-77
2023/01/03 03:55:59;;;;;;;;;;;5.60;99.90;;;;;;5030590;28;20028;-77
2023/01/03 03:58:30;;;;;;;;;;;5.60;99.90;;;;;;5029739;28;20393;-77
2023/01/03 04:00:56;;;;;;;;;;;5.60;99.90;;;;;;5030749;28;20479;-77
2023/01/03 04:03:22;;;;;;;;;;;5.70;99.90;;;;;;5031830;28;19912;-76
2023/01/03 04:05:50;;;;;;;;;;;5.70;99.90;;;;;;5034703;28;19916;-76
2023/01/03 04:08:15;;;;;;;;;;;5.70;99.90;;;;;;5033257;28;19913;-76
2023/01/03 04:10:41;;;;;;;;;;;5.70;99.90;;;;;;5032848;28;19913;-76
2023/01/03 04:13:07;;;;;;;;;;;5.80;99.90;;;;;;5035354;28;19916;-76
2023/01/03 04:15:32;;;;;;;;;;;5.80;99.90;;;;;;5036252;28;19912;-76
2023/01/03 04:18:01;;;;;;;;;;;5.80;99.90;;;;;;5033587;28;20377;-76
2023/01/03 04:20:26;;;;;;;;;;;5.80;99.90;;;;;;5033292;28;20475;-75
2023/01/03 04:22:52;;;;;;;;;;;5.70;99.90;;;;;;5033073;28;19905;-76
2023/01/03 04:25:18;;;;;;;;;;;5.80;99.90;;;;;;5033623;28;19905;-76
2023/01/03 04:27:43;;;;;;;;;;;5.80;99.90;;;;;;5031873;28;19967;-76
2023/01/03 04:30:10;;;;;;;;;;;5.70;99.90;;;;;;5037057;28;19943;-76
2023/01/03 04:32:36;;;;;;;;;;;5.60;99.90;;;;;;5036353;28;19908;-76
2023/01/03 04:35:01;;;;;;;;;;;5.60;99.90;;;;;;5039347;28;19916;-76
2023/01/03 04:37:27;;;;;;;;;;;5.50;99.90;;;;;;5039699;28;19909;-76
2023/01/03 04:39:52;;;;;;;;;;;5.40;99.90;;;;;;5039634;28;19972;-77
2023/01/03 04:45:03;;;;;;;;;;;5.40;99.90;;;;;;5040207;28;19919;-76
2023/01/03 04:47:28;;;;;;;;;;;5.30;99.90;;;;;;5037095;28;19909;-76
2023/01/03 04:49:54;;;;;;;;;;;5.30;99.90;;;;;;5033691;28;20368;-76
2023/01/03 04:52:19;;;;;;;;;;;5.40;99.90;;;;;;5035016;28;19963;-76
2023/01/03 04:54:45;;;;;;;;;;;5.40;99.90;;;;;;5034400;28;19916;-76
2023/01/03 04:57:10;;;;;;;;;;;5.40;99.90;;;;;;5034802;28;20393;-76
2023/01/03 04:59:36;;;;;;;;;;;5.30;99.90;;;;;;5034383;28;19916;-76
2023/01/03 05:02:02;;;;;;;;;;;5.40;99.90;;;;;;5033636;28;19980;-76
2023/01/03 05:04:28;;;;;;;;;;;5.40;99.90;;;;;;5035218;28;19915;-77
2023/01/03 05:06:56;;;;;;;;;;;5.40;99.90;;;;;;5035905;28;20374;-76
2023/01/03 05:09:22;;;;;;;;;;;5.40;99.90;;;;;;5037121;28;19916;-76
2023/01/03 05:11:48;;;;;;;;;;;5.50;99.90;;;;;;5033130;28;20478;-76
2023/01/03 05:14:14;;;;;;;;;;;5.40;99.90;;;;;;5035716;28;19920;-76
2023/01/03 05:16:39;;;;;;;;;;;5.50;99.90;;;;;;5035313;28;19905;-76
2023/01/03 05:19:05;;;;;;;;;;;5.50;99.90;;;;;;5032240;28;19905;-77
2023/01/03 05:27:00;;;;;;;;;;;5.50;99.90;;;;;;5032673;28;19928;-77
2023/01/03 05:29:26;;;;;;;;;;;5.50;99.90;;;;;;5030817;28;20004;-77
2023/01/03 05:31:52;;;;;;;;;;;5.50;99.90;;;;;;5031888;28;19960;-77
2023/01/03 05:34:18;;;;;;;;;;;5.60;99.90;;;;;;5032543;28;19909;-77
2023/01/03 05:36:43;;;;;;;;;;;5.70;99.90;;;;;;5031120;28;19913;-77
2023/01/03 05:39:09;;;;;;;;;;;5.70;99.90;;;;;;5032529;28;19912;-77
2023/01/03 05:44:19;;;;;;;;;;;5.70;99.90;;;;;;5032587;28;19911;-76
2023/01/03 05:46:44;;;;;;;;;;;5.80;99.90;;;;;;5031109;28;20021;-77
2023/01/03 05:49:10;;;;;;;;;;;5.90;99.90;;;;;;5032491;28;20349;-77
2023/01/03 05:51:35;;;;;;;;;;;5.90;99.90;;;;;;5031800;28;20423;-77
2023/01/03 05:54:01;;;;;;;;;;;5.90;99.90;;;;;;5031271;28;20636;-77
2023/01/03 05:56:26;;;;;;;;;;;5.90;99.90;;;;;;5033084;28;19909;-77
2023/01/03 05:58:52;;;;;;;;;;;5.90;99.90;;;;;;5031708;28;19920;-77
2023/01/03 06:01:18;;;;;;;;;;;6.00;99.90;;;;;;5032807;28;19916;-77
2023/01/03 06:03:44;;;;;;;;;;;6.00;99.90;;;;;;5032591;28;19955;-77
2023/01/03 06:06:10;;;;;;;;;;;6.10;99.90;;;;;;5031810;28;19905;-76
2023/01/03 06:08:36;;;;;;;;;;;6.10;99.90;;;;;;5031735;28;19917;-77
2023/01/03 06:11:05;;;;;;;;;;;6.10;99.90;;;;;;5031965;28;19909;-77
2023/01/03 06:13:31;;;;;;;;;;;6.20;99.90;;;;;;5031517;28;19905;-76
2023/01/03 06:18:45;;;;;;;;;;;6.20;99.90;;;;;;5033570;28;19962;-76
2023/01/03 06:21:10;;;;;;;;;;;6.30;99.90;;;;;;5032181;28;20427;-77
2023/01/03 06:23:36;;;;;;;;;;;6.20;99.90;;;;;;5031390;28;19909;-77
2023/01/03 06:26:02;;;;;;;;;;;6.30;99.90;;;;;;5031583;28;19909;-76
2023/01/03 06:28:28;;;;;;;;;;;6.30;99.90;;;;;;5030532;28;19909;-77
2023/01/03 06:30:54;;;;;;;;;;;6.30;99.90;;;;;;5031652;28;19917;-77
2023/01/03 06:33:19;;;;;;;;;;;6.30;99.90;;;;;;5031211;28;19905;-77
2023/01/03 06:35:45;;;;;;;;;;;6.30;99.90;;;;;;5031845;28;19905;-77
2023/01/03 06:38:10;;;;;;;;;;;6.30;99.90;;;;;;5032866;28;19974;-77
2023/01/03 06:40:36;;;;;;;;;;;6.30;99.90;;;;;;5031564;28;20325;-76
2023/01/03 06:43:01;;;;;;;;;;;6.20;99.90;;;;;;5032006;28;19905;-77
2023/01/03 06:53:40;;;;;;;;;;;6.50;99.90;;;;;;5032743;28;20691;-77
2023/01/03 06:56:06;;;;;;;;;;;6.50;99.90;;;;;;5031330;28;19985;-77
2023/01/03 06:58:32;;;;;;;;;;;6.60;99.90;;;;;;5031019;28;19909;-77
2023/01/03 07:00:58;;;;;;;;;;;6.60;99.90;;;;;;5031363;28;19915;-77
2023/01/03 07:03:24;;;;;;;;;;;6.60;99.90;;;;;;5033785;28;19968;-78
2023/01/03 07:05:50;;;;;;;;;;;6.70;99.90;;;;;;5033076;28;19913;-77
2023/01/03 07:08:15;;;;;;;;;;;6.70;99.90;;;;;;5032657;28;20016;-77
2023/01/03 07:10:41;;;;;;;;;;;6.80;99.90;;;;;;5030317;28;19956;-77
2023/01/03 07:15:51;;;;;;;;;;;6.90;99.90;;;;;;5030562;28;19942;-77
2023/01/03 07:18:16;;;;;;;;;;;7.00;99.90;;;;;;5029304;28;19909;-77
2023/01/03 07:20:42;;;;;;;;;;;7.00;99.90;;;;;;5029322;28;19935;-77
2023/01/03 07:23:08;;;;;;;;;;;7.00;99.90;;;;;;5030772;28;20401;-76
2023/01/03 07:25:34;;;;;;;;;;;7.10;99.90;;;;;;5030765;28;20016;-76
2023/01/03 07:28:00;;;;;;;;;;;7.10;99.90;;;;;;5030526;28;20040;-77
2023/01/03 07:30:25;;;;;;;;;;;7.20;99.90;;;;;;5030411;28;19917;-77
2023/01/03 07:32:55;;;;;;;;;;;7.30;99.90;;;;;;5030959;28;19925;-77
2023/01/03 07:35:20;;;;;;;;;;;7.20;99.90;;;;;;5030661;28;19905;-77
2023/01/03 07:37:46;;;;;;;;;;;7.30;99.90;;;;;;5030128;28;19909;-77
2023/01/03 07:40:11;;;;;;;;;;;7.30;99.90;;;;;;5028983;28;19968;-77
2023/01/03 07:45:21;;;;;;;;;;;7.30;99.90;;;;;;5031131;28;20246;-78
2023/01/03 07:47:47;;;;;;;;;;;7.30;99.90;;;;;;5029031;28;20370;-77
2023/01/03 07:50:12;;;;;;;;;;;7.20;99.90;;;;;;5031313;28;20258;-77
2023/01/03 07:52:38;;;;;;;;;;;7.20;99.90;;;;;;5030487;28;20003;-77
2023/01/03 07:55:03;;;;;;;;;;;7.20;99.90;;;;;;5030748;28;19909;-77
2023/01/03 07:57:29;;;;;;;;;;;7.20;99.90;;;;;;5030501;28;19952;-77
2023/01/03 07:59:55;;;;;;;;;;;7.30;99.90;;;;;;5029258;28;19928;-77
2023/01/03 08:02:20;;;;;;;;;;;7.30;99.90;;;;;;5029391;28;19956;-77
2023/01/03 08:04:46;;;;;;;;;;;7.30;99.90;;;;;;5029923;28;20378;-77
2023/01/03 08:07:11;;;;;;;;;;;7.40;99.90;;;;;;5030750;28;19905;-77
2023/01/03 08:15:05;;;;;;;;;;;7.50;99.90;;;;;;5031151;28;20419;-77
2023/01/03 08:17:31;;;;;;;;;;;7.50;99.90;;;;;;5030794;28;19909;-77
2023/01/03 08:19:56;;;;;;;;;;;7.60;99.90;;;;;;5029303;28;19909;-77
2023/01/03 08:22:23;;;;;;;;;;;7.60;99.90;;;;;;5030606;28;19909;-77
2023/01/03 08:24:50;;;;;;;;;;;7.70;99.90;;;;;;5030329;28;19976;-76
2023/01/03 08:27:15;;;;;;;;;;;7.70;99.90;;;;;;5028769;28;19917;-77
2023/01/03 08:29:41;;;;;;;;;;;7.70;99.90;;;;;;5031135;28;20044;-77
2023/01/03 08:32:07;;;;;;;;;;;7.80;99.90;;;;;;5030425;28;19909;-77
2023/01/03 08:34:35;;;;;;;;;;;7.90;99.90;;;;;;5031165;28;19909;-77
2023/01/03 08:37:02;;;;;;;;;;;7.90;99.90;;;;;;5029088;28;19909;-77
2023/01/03 08:39:31;;;;;;;;;;;7.90;99.90;;;;;;5029320;28;20390;-77
2023/01/03 08:41:59;;;;;;;;;;;7.90;99.90;;;;;;5030407;28;19999;-77
2023/01/03 08:44:24;;;;;;;;;;;8.00;99.90;;;;;;5029903;28;20337;-76
2023/01/03 08:46:51;;;;;;;;;;;8.00;99.90;;;;;;5030456;28;19935;-77
2023/01/03 08:49:17;;;;;;;;;;;8.00;99.90;;;;;;5030549;28;20012;-77
2023/01/03 08:51:43;;;;;;;;;;;8.10;99.90;;;;;;5029379;28;19912;-77
2023/01/03 08:54:08;;;;;;;;;;;8.10;99.90;;;;;;5029922;28;20319;-77
2023/01/03 08:56:34;;;;;;;;;;;8.20;99.90;;;;;;5030604;28;20373;-77
2023/01/03 08:59:00;;;;;;;;;;;8.20;99.90;;;;;;5028935;28;20266;-78
2023/01/03 09:01:25;;;;;;;;;;;8.30;99.90;;;;;;5030597;28;19985;-76
2023/01/03 09:03:51;;;;;;;;;;;8.30;99.90;;;;;;5030252;28;19935;-77
2023/01/03 09:06:17;;;;;;;;;;;8.30;99.90;;;;;;5030574;28;19912;-77
2023/01/03 09:08:42;;;;;;;;;;;8.30;99.90;;;;;;5030382;28;19920;-77
2023/01/03 09:11:08;;;;;;;;;;;8.30;99.90;;;;;;5029140;28;20020;-77
2023/01/03 09:13:34;;;;;;;;;;;8.40;99.90;;;;;;5030520;28;20329;-78
2023/01/03 09:16:04;;;;;;;;;;;8.40;99.90;;;;;;5033055;28;20373;-77
2023/01/03 09:18:29;;;;;;;;;;;8.40;99.90;;;;;;5032036;28;20420;-77
2023/01/03 09:20:55;;;;;;;;;;;8.40;99.90;;;;;;5033092;28;19913;-77
2023/01/03 09:23:21;;;;;;;;;;;8.40;99.90;;;;;;5032139;28;20388;-77
2023/01/03 09:25:46;;;;;;;;;;;8.40;99.90;;;;;;5033931;28;19909;-77
2023/01/03 09:28:12;;;;;;;;;;;8.40;99.90;;;;;;5034117;28;19921;-77
2023/01/03 09:30:37;;;;;;;;;;;8.40;99.90;;;;;;5035358;28;19919;-76
2023/01/03 09:33:03;;;;;;;;;;;8.40;99.90;;;;;;5032774;28;20381;-77
2023/01/03 09:35:30;;;;;;;;;;;8.40;99.90;;;;;;5032514;28;19920;-77
2023/01/03 09:37:55;;;;;;;;;;;8.50;99.90;;;;;;5032680;28;20393;-76
2023/01/03 09:40:21;;;;;;;;;;;8.50;99.90;;;;;;5032583;28;19909;-77
2023/01/03 09:45:32;;;;;;;;;;;8.50;99.90;;;;;;5032043;28;19929;-77
2023/01/03 09:48:02;;;;;;;;;;;8.50;99.90;;;;;;5032317;28;19976;-77
2023/01/03 09:50:29;;;;;;;;;;;8.40;99.90;;;;;;5030729;28;20356;-77
2023/01/03 10:04:25;;;;;;;;;;;8.60;99.90;;;;;;5032281;28;19940;-77
2023/01/03 10:07:10;;;;;;;;;;;8.60;99.90;;;;;;5032035;28;19909;-77
2023/01/03 10:09:51;;;;;;;;;;;8.70;99.90;;;;;;5020583;28;19917;-77
2023/01/03 10:12:32;;;;;;;;;;;8.80;99.90;;;;;;5032112;28;19909;-78
2023/01/03 10:15:09;;;;;;;;;;;8.80;99.90;;;;;;5031826;28;19984;-77
2023/01/03 10:17:37;;;;;;;;;;;8.90;99.90;;;;;;5031321;28;19992;-77
2023/01/03 10:20:03;;;;;;;;;;;8.90;99.90;;;;;;5031539;28;19913;-77
2023/01/03 10:22:29;;;;;;;;;;;8.90;99.90;;;;;;5030364;28;19909;-77
2023/01/03 10:24:55;;;;;;;;;;;8.90;99.90;;;;;;5029969;28;19909;-77
2023/01/03 10:27:23;;;;;;;;;;;9.00;99.90;;;;;;5030395;28;20039;-77
2023/01/03 10:29:52;;;;;;;;;;;9.00;99.90;;;;;;5029884;28;19987;-77
2023/01/03 10:32:18;;;;;;;;;;;9.10;99.90;;;;;;5029899;28;19955;-77
2023/01/03 10:35:01;;;;;;;;;;;9.10;99.90;;;;;;5030192;28;19917;-78
2023/01/03 10:37:27;;;;;;;;;;;9.00;99.90;;;;;;5029920;28;19909;-78
2023/01/03 10:40:03;;;;;;;;;;;9.10;99.90;;;;;;5029594;28;19909;-78
2023/01/03 10:42:30;;;;;;;;;;;9.20;99.90;;;;;;5029831;28;19909;-77
2023/01/03 10:44:58;;;;;;;;;;;9.30;99.90;;;;;;5030000;28;19913;-77
2023/01/03 10:47:25;;;;;;;;;;;9.40;99.90;;;;;;5029559;28;19920;-77
2023/01/03 10:49:57;;;;;;;;;;;9.40;99.90;;;;;;5030941;28;19917;-77
2023/01/03 10:52:22;;;;;;;;;;;9.40;99.90;;;;;;5029687;28;19912;-77
2023/01/03 10:54:57;;;;;;;;;;;9.50;99.90;;;;;;5030127;28;19909;-77
2023/01/03 10:57:38;;;;;;;;;;;9.60;99.90;;;;;;5029743;28;19927;-77
2023/01/03 11:00:22;;;;;;;;;;;9.70;99.90;;;;;;5029373;28;19909;-78
2023/01/03 11:02:48;;;;;;;;;;;9.80;99.90;;;;;;5030702;28;19913;-76
2023/01/03 11:05:18;;;;;;;;;;;9.80;99.90;;;;;;5029687;28;19909;-77
2023/01/03 11:07:45;;;;;;;;;;;9.90;99.90;;;;;;5029350;28;20000;-77
2023/01/03 11:10:15;;;;;;;;;;;9.90;99.90;;;;;;5029509;28;19917;-78
2023/01/03 11:12:41;;;;;;;;;;;9.90;99.90;;;;;;5029603;28;20035;-77
2023/01/03 11:15:13;;;;;;;;;;;10.00;99.90;;;;;;5030754;28;20015;-77
2023/01/03 11:17:51;;;;;;;;;;;9.90;99.90;;;;;;5029525;28;19916;-78
2023/01/03 11:20:17;;;;;;;;;;;9.90;99.90;;;;;;5030514;28;19909;-77
2023/01/03 11:22:54;;;;;;;;;;;10.00;99.90;;;;;;5030457;28;19909;-77
2023/01/03 11:25:29;;;;;;;;;;;10.00;99.90;;;;;;5030537;28;19912;-78
2023/01/03 11:28:10;;;;;;;;;;;10.00;99.90;;;;;;5030356;28;19924;-77
2023/01/03 11:30:44;;;;;;;;;;;10.00;99.90;;;;;;5029270;28;19920;-77
2023/01/03 11:33:22;;;;;;;;;;;10.00;99.90;;;;;;5029446;28;20003;-77
2023/01/03 11:36:04;;;;;;;;;;;10.00;99.90;;;;;;5029078;28;19936;-77
2023/01/03 11:38:50;;;;;;;;;;;10.00;99.90;;;;;;5030488;28;19915;-78
2023/01/03 11:41:26;;;;;;;;;;;9.90;99.90;;;;;;5029005;28;19913;-78
2023/01/03 11:43:51;;;;;;;;;;;9.90;99.90;;;;;;5028774;28;19909;-77
2023/01/03 11:46:40;;;;;;;;;;;9.90;99.90;;;;;;5029561;28;19912;-78
2023/01/03 11:49:06;;;;;;;;;;;9.90;99.90;;;;;;5026385;28;19920;-77
2023/01/03 11:51:38;;;;;;;;;;;9.90;99.90;;;;;;5030497;28;20290;-77
2023/01/03 11:54:23;;;;;;;;;;;9.90;99.90;;;;;;5030523;28;19909;-77
2023/01/03 11:56:49;;;;;;;;;;;9.90;99.90;;;;;;5029202;28;20456;-77
2023/01/03 11:59:41;;;;;;;;;;;9.80;99.90;;;;;;5028488;28;19909;-77
2023/01/03 12:02:36;;;;;;;;;;;9.90;99.90;;;;;;5020610;28;20270;-77
2023/01/03 12:05:01;;;;;;;;;;;9.90;99.90;;;;;;5009708;28;20339;-77
2023/01/03 12:07:33;;;;;;;;;;;9.80;99.90;;;;;;5028226;28;19948;-77
2023/01/03 12:10:11;;;;;;;;;;;9.80;99.90;;;;;;5029246;28;20294;-76
2023/01/03 12:12:37;;;;;;;;;;;9.80;99.90;;;;;;5029744;28;19909;-77
2023/01/03 12:15:12;;;;;;;;;;;9.80;99.90;;;;;;5028052;28;20332;-78
2023/01/03 12:17:42;;;;;;;;;;;9.80;99.90;;;;;;5028374;28;19909;-77
2023/01/03 12:20:16;;;;;;;;;;;9.70;99.90;;;;;;5027958;28;19909;-77
2023/01/03 12:22:43;;;;;;;;;;;9.70;99.90;;;;;;5028107;28;19909;-77
2023/01/03 12:25:28;;;;;;;;;;;9.70;99.90;;;;;;5028058;28;19916;-77
2023/01/03 12:27:54;;;;;;;;;;;9.70;99.90;;;;;;5029176;28;19921;-77
2023/01/03 12:30:22;;;;;;;;;;;9.70;99.90;;;;;;5028030;28;19939;-77
2023/01/03 12:32:50;;;;;;;;;;;9.70;99.90;;;;;;5028361;28;19905;-77
2023/01/03 12:35:19;;;;;;;;;;;9.70;99.90;;;;;;5027834;28;19916;-77
2023/01/03 12:37:46;;;;;;;;;;;9.70;99.90;;;;;;5029377;28;19920;-77
2023/01/03 12:40:20;;;;;;;;;;;9.60;99.90;;;;;;5028249;28;20025;-77
2023/01/03 12:42:49;;;;;;;;;;;9.60;99.90;;;;;;5027659;28;20037;-77
2023/01/03 12:45:23;;;;;;;;;;;9.60;99.90;;;;;;5029312;28;19913;-77
2023/01/03 12:47:59;;;;;;;;;;;9.60;99.90;;;;;;5027665;28;20046;-77
2023/01/03 12:50:51;;;;;;;;;;;9.50;99.90;;;;;;5029850;28;19925;-77
2023/01/03 12:53:23;;;;;;;;;;;9.50;99.90;;;;;;5030980;28;19916;-77
2023/01/03 12:56:07;;;;;;;;;;;9.40;99.90;;;;;;5031551;28;20358;-77
2023/01/03 12:58:36;;;;;;;;;;;9.40;99.90;;;;;;5032786;28;20381;-77
2023/01/03 13:01:09;;;;;;;;;;;9.40;99.90;;;;;;5031138;28;19913;-77
2023/01/03 13:03:40;;;;;;;;;;;9.40;99.90;;;;;;5032782;28;19983;-77
2023/01/03 13:06:17;;;;;;;;;;;9.30;99.90;;;;;;5031754;28;19909;-77
2023/01/03 13:08:59;;;;;;;;;;;9.40;99.90;;;;;;5031398;28;19967;-77
2023/01/03 13:11:27;;;;;;;;;;;9.30;99.90;;;;;;5031584;28;19988;-78
2023/01/03 13:13:54;;;;;;;;;;;9.30;99.90;;;;;;5031582;28;19909;-77
2023/01/03 13:16:35;;;;;;;;;;;9.30;99.90;;;;;;5032878;28;19912;-77
2023/01/03 13:19:19;;;;;;;;;;;9.30;99.90;;;;;;5031497;28;19909;-77
2023/01/03 13:22:03;;;;;;;;;;;9.40;99.90;;;;;;5032032;28;19913;-77
2023/01/03 13:24:43;;;;;;;;;;;9.30;99.90;;;;;;5031789;28;19905;-78
2023/01/03 13:27:19;;;;;;;;;;;9.30;99.90;;;;;;5031218;28;19921;-77
2023/01/03 13:29:47;;;;;;;;;;;9.30;99.90;;;;;;5031520;28;19921;-77
2023/01/03 13:32:19;;;;;;;;;;;9.30;99.90;;;;;;5032788;28;19905;-78
2023/01/03 13:35:04;;;;;;;;;;;9.30;99.90;;;;;;5031287;28;19913;-77
2023/01/03 13:37:46;;;;;;;;;;;9.30;99.90;;;;;;5030947;28;19963;-78
2023/01/03 13:40:12;;;;;;;;;;;9.20;99.90;;;;;;5031014;28;19908;-77
2023/01/03 13:42:38;;;;;;;;;;;9.20;99.90;;;;;;5031350;28;20317;-77
2023/01/03 13:45:10;;;;;;;;;;;9.20;99.90;;;;;;5032596;28;19913;-77
2023/01/03 13:47:42;;;;;;;;;;;9.10;99.90;;;;;;5032863;28;19920;-77
2023/01/03 13:50:28;;;;;;;;;;;9.10;99.90;;;;;;5031241;28;20382;-77
2023/01/03 13:52:57;;;;;;;;;;;9.10;99.90;;;;;;5032449;28;19909;-77
2023/01/03 13:55:31;;;;;;;;;;;9.10;99.90;;;;;;5030760;28;19913;-77
2023/01/03 13:57:57;;;;;;;;;;;9.10;99.90;;;;;;5030792;28;20459;-77
2023/01/03 14:00:23;;;;;;;;;;;9.10;99.90;;;;;;5031338;28;20400;-77
2023/01/03 14:02:48;;;;;;;;;;;9.10;99.90;;;;;;5030410;28;19916;-77
2023/01/03 14:05:19;;;;;;;;;;;9.10;99.90;;;;;;5031205;28;19917;-77
2023/01/03 14:08:14;;;;;;;;;;;9.00;99.90;;;;;;5030753;28;19909;-77
2023/01/03 14:10:40;;;;;;;;;;;9.00;99.90;;;;;;5026474;28;20347;-78
2023/01/03 14:13:05;;;;;;;;;;;9.00;99.90;;;;;;5032563;28;19905;-77
2023/01/03 14:15:32;;;;;;;;;;;9.00;99.90;;;;;;5032291;28;20690;-77
2023/01/03 14:18:06;;;;;;;;;;;9.00;99.90;;;;;;5030852;28;19909;-77
2023/01/03 14:20:34;;;;;;;;;;;8.90;99.90;;;;;;5029907;28;19931;-78
2023/01/03 14:23:04;;;;;;;;;;;8.90;99.90;;;;;;5031114;28;20016;-77
2023/01/03 14:25:31;;;;;;;;;;;8.90;99.90;;;;;;5029982;28;19982;-77
2023/01/03 14:27:59;;;;;;;;;;;8.90;99.90;;;;;;5029338;28;19985;-78
2023/01/03 14:30:28;;;;;;;;;;;8.90;99.90;;;;;;5029825;28;19931;-78
2023/01/03 14:32:53;;;;;;;;;;;8.90;99.90;;;;;;5030517;28;19906;-78
2023/01/03 14:35:36;;;;;;;;;;;8.80;99.90;;;;;;5029912;28;19919;-78
2023/01/03 14:38:02;;;;;;;;;;;8.90;99.90;;;;;;5029907;28;19948;-78
2023/01/03 14:40:28;;;;;;;;;;;8.80;99.90;;;;;;5030090;28;19956;-77
2023/01/03 14:42:53;;;;;;;;;;;8.80;99.90;;;;;;5029626;28;19912;-78
2023/01/03 14:45:19;;;;;;;;;;;8.80;99.90;;;;;;5031251;28;19909;-78
2023/01/03 14:47:45;;;;;;;;;;;8.80;99.90;;;;;;5030070;28;19905;-77
2023/01/03 14:50:13;;;;;;;;;;;8.70;99.90;;;;;;5029500;28;19917;-77
2023/01/03 14:52:41;;;;;;;;;;;8.70;99.90;;;;;;5029530;28;19905;-77
2023/01/03 14:55:08;;;;;;;;;;;8.80;99.90;;;;;;5030289;28;19991;-77
2023/01/03 14:57:37;;;;;;;;;;;8.70;99.90;;;;;;5029995;28;19905;-77
2023/01/03 15:00:04;;;;;;;;;;;8.70;99.90;;;;;;5031403;28;19916;-77
2023/01/03 15:02:34;;;;;;;;;;;8.60;99.90;;;;;;5031261;28;19905;-77
2023/01/03 15:05:01;;;;;;;;;;;8.60;99.90;;;;;;5030190;28;19999;-77
2023/01/03 15:07:29;;;;;;;;;;;8.60;99.90;;;;;;5031617;28;19908;-77
2023/01/03 15:10:03;;;;;;;;;;;8.60;99.90;;;;;;5029673;28;19921;-77
2023/01/03 15:12:29;;;;;;;;;;;8.60;99.90;;;;;;5030814;28;19909;-77
2023/01/03 15:14:55;;;;;;;;;;;8.60;99.90;;;;;;5031179;28;19905;-77
2023/01/03 15:17:24;;;;;;;;;;;8.60;99.90;;;;;;5031064;28;19916;-77
2023/01/03 15:19:51;;;;;;;;;;;8.60;99.90;;;;;;5029573;28;19909;-77
2023/01/03 15:22:21;;;;;;;;;;;8.60;99.90;;;;;;5030641;28;19915;-77
2023/01/03 15:24:49;;;;;;;;;;;8.60;99.90;;;;;;5029190;28;19909;-78
2023/01/03 15:27:33;;;;;;;;;;;8.60;99.90;;;;;;5029727;28;19948;-77
2023/01/03 15:30:11;;;;;;;;;;;8.50;99.90;;;;;;5029731;28;19921;-78
2023/01/03 15:32:49;;;;;;;;;;;8.50;99.90;;;;;;5029462;28;19932;-76
2023/01/03 15:35:37;;;;;;;;;;;8.50;99.90;;;;;;5030409;28;19967;-77
2023/01/03 15:38:18;;;;;;;;;;;8.50;99.90;;;;;;5026033;28;19916;-77
2023/01/03 15:40:46;;;;;;;;;;;8.50;99.90;;;;;;5028785;28;20425;-77
2023/01/03 15:43:23;;;;;;;;;;;8.50;99.90;;;;;;5029251;28;20314;-77
2023/01/03 15:45:59;;;;;;;;;;;8.60;99.90;;;;;;5028851;28;19909;-77
2023/01/03 15:48:25;;;;;;;;;;;8.50;99.90;;;;;;5029188;28;19920;-77
2023/01/03 15:50:52;;;;;;;;;;;8.50;99.90;;;;;;5029652;28;19917;-77
2023/01/03 15:53:22;;;;;;;;;;;8.50;99.90;;;;;;5031566;28;19916;-77